• Join FlightAware (Why Join?)
  • Login
  • US Flag 
04:07AM EDT


 

Airport Tracker/Info


-or-


 

Live Flight TrackerFlight Track Log ✈ DLH621 ✈ 20-May-2012 ✈ OBBI / BAH - OTBD / DOH

Flight Track Log - Related Links

Times and Time Zones

All times are in EDT time to prevent confusion due to time zone crossing. See the DLH621 flight status page for this flight to view local times or setup timezone preferences in your user account.

Time Position Orientation Groundspeed Altitude Reporting Facility
EDT Latitude Longitude Course Direction KTS MPH feet Rate Location/Type
04:12PM 26.2474 50.6554 140° Southeast  Level Estimated
04:13PM 26.2036 50.6964 140° Southeast  Level Estimated
04:14PM 26.1597 50.7372 140° Southeast  Level Estimated
04:15PM 26.1158 50.7781 140° Southeast  Level Estimated
04:16PM 26.0718 50.8189 140° Southeast  Level Estimated
04:17PM 26.0279 50.8596 140° Southeast  Level Estimated
04:18PM 25.9840 50.9004 140° Southeast  Level Estimated
04:19PM 25.9400 50.9411 140° Southeast  Level Estimated
04:20PM 25.8961 50.9818 140° Southeast  Level Estimated
04:21PM 25.8521 51.0225 140° Southeast  Level Estimated
04:22PM 25.8081 51.0631 140° Southeast  Level Estimated
04:23PM 25.7641 51.1037 140° Southeast  Level Estimated
04:24PM 25.7201 51.1443 140° Southeast  Level Estimated
04:25PM 25.6840 51.1776 140° Southeast  Level Estimated
04:26PM 25.6478 51.2109 140° Southeast  Level Estimated
04:27PM 25.6116 51.2441 140° Southeast  Level Estimated
04:28PM 25.5755 51.2774 140° Southeast  Level Estimated
04:29PM 25.5393 51.3106 140° Southeast  Level Estimated
04:30PM 25.5031 51.3438 140° Southeast  Level Estimated
04:31PM 25.4669 51.3770 140° Southeast  Level Estimated
04:32PM 25.4307 51.4101 140° Southeast  Level Estimated
04:33PM 25.3944 51.4433 140° Southeast  Level Estimated
04:34PM 25.3582 51.4764 140° Southeast  Level Estimated
04:35PM 25.3220 51.5095 140° Southeast  Level Estimated
04:36PM 25.2857 51.5426 140° Southeast  Level Estimated
04:37PM 25.2495 51.5756 320° Northwest  Level Estimated
04:38PM 25.2857 51.5426 140° Southeast  Level Estimated
04:39PM 25.2495 51.5756 320° Northwest  Level Estimated
04:40PM 25.2857 51.5426 140° Southeast  Level Estimated
04:41PM 25.2495 51.5756 320° Northwest  Level Estimated
04:42PM 25.2857 51.5426 140° Southeast  Level Estimated
04:43PM 25.2495 51.5756 320° Northwest  Level Estimated
04:44PM 25.2857 51.5426 140° Southeast  Level Estimated
04:45PM 25.2495 51.5756 320° Northwest  Level Estimated
04:46PM 25.2857 51.5426 140° Southeast  Level Estimated
04:47PM 25.2495 51.5756 320° Northwest  Level Estimated
04:48PM 25.2857 51.5426 140° Southeast  Level Estimated
04:49PM 25.2495 51.5756 320° Northwest  Level Estimated
04:50PM 25.2857 51.5426 140° Southeast  Level Estimated
04:51PM 25.2495 51.5756 320° Northwest  Level Estimated
04:52PM 25.2857 51.5426 140° Southeast  Level Estimated
04:53PM 25.2495 51.5756 320° Northwest  Level Estimated
04:54PM 25.2857 51.5426 140° Southeast  Level Estimated
04:55PM 25.2495 51.5756 140° Southeast  Level Estimated